Terminal Aerodrome Forecast
Issued by NWS

Home | Current Version | Previous Version | Text Only | Print | Product List | Glossary On
Versions: 1 2 3 4 5 6 7 8 9 10 11 12 13 14 15 16 17 18 19 20 21 22 23 24 25 26 27 28 29
549
FTUS41 KOKX 220553
TAFSWF
TAF
KSWF 220553Z 2206/2312 VRB02KT 5SM -DZ BR SCT010 OVC020
     FM220900 00000KT 2SM -DZ BR OVC008
      TEMPO 2209/2212 1SM -DZ BR OVC004
     FM221700 VRB02KT 3SM -DZ BR OVC008
     FM230800 14005KT 2SM SHRA BR BKN006 OVC010 WS020/23045KT
      AMD NOT SKED=

USA.gov is the U.S. government's official web portal to all federal, state and local government web resources and services.